createdAt,value
2022-09-26T00:00:00.309Z,0.3
2022-09-26T00:05:00.228Z,0.4
2022-09-26T00:10:00.291Z,0.2
2022-09-26T00:15:00.243Z,1.9
2022-09-26T00:20:00.282Z,0.9
2022-09-26T00:25:00.265Z,0.4
2022-09-26T00:30:00.277Z,0.4
2022-09-26T00:35:00.257Z,0.1
2022-09-26T00:40:00.297Z,0.7
2022-09-26T00:45:00.247Z,0.1
2022-09-26T00:50:00.310Z,1.4
2022-09-26T00:55:00.252Z,0.7
2022-09-26T01:00:00.410Z,0.2
2022-09-26T01:05:00.236Z,0.1
2022-09-26T01:10:00.316Z,0.5
2022-09-26T01:15:00.290Z,0.7
2022-09-26T01:20:00.285Z,0.5
2022-09-26T01:25:00.248Z,1.1
2022-09-26T01:30:00.312Z,1.5
2022-09-26T01:35:00.242Z,0.4
2022-09-26T01:40:00.309Z,1.4
2022-09-26T01:45:00.269Z,1.7
2022-09-26T01:50:00.328Z,1.0
2022-09-26T01:55:00.258Z,1.8
2022-09-26T02:00:00.288Z,0.9
2022-09-26T02:05:00.259Z,0.1
2022-09-26T02:10:00.251Z,0.2
2022-09-26T02:15:00.271Z,0.5
2022-09-26T02:20:00.291Z,0.3
2022-09-26T02:25:00.253Z,0.9
2022-09-26T02:30:00.464Z,1.4
2022-09-26T02:35:00.263Z,0.3
2022-09-26T02:40:00.266Z,0.8
2022-09-26T02:45:00.277Z,0.8
2022-09-26T02:50:01.250Z,0.3
2022-09-26T02:55:00.232Z,0.0
2022-09-26T03:00:00.298Z,0.0
2022-09-26T03:05:00.438Z,0.1
2022-09-26T03:10:00.283Z,0.5
2022-09-26T03:15:00.246Z,0.0
2022-09-26T03:20:00.269Z,0.1
2022-09-26T03:25:00.243Z,0.1
2022-09-26T03:30:00.318Z,0.1
2022-09-26T03:35:00.241Z,0.2
2022-09-26T03:40:00.282Z,1.0
2022-09-26T03:45:00.280Z,0.6
2022-09-26T03:50:00.262Z,0.0
2022-09-26T03:55:00.233Z,0.8
2022-09-26T04:00:00.351Z,0.2
2022-09-26T04:05:00.275Z,0.1
2022-09-26T04:10:00.276Z,1.0
2022-09-26T04:15:00.276Z,0.3
2022-09-26T04:20:00.317Z,0.4
2022-09-26T04:25:00.282Z,0.4
2022-09-26T04:30:00.321Z,0.0
2022-09-26T04:35:00.242Z,0.6
2022-09-26T04:40:00.280Z,0.4
2022-09-26T04:45:00.269Z,0.8
2022-09-26T04:50:00.305Z,0.1
2022-09-26T04:55:00.280Z,0.6
2022-09-26T05:00:00.320Z,0.2
2022-09-26T05:05:00.266Z,0.0
2022-09-26T05:10:00.298Z,0.0
2022-09-26T05:15:00.257Z,0.1
2022-09-26T05:20:00.305Z,0.0
2022-09-26T05:25:00.273Z,1.5
2022-09-26T05:30:00.294Z,0.3
2022-09-26T05:35:00.246Z,1.3
2022-09-26T05:40:00.326Z,0.9
2022-09-26T05:45:00.260Z,0.5
2022-09-26T05:50:00.293Z,1.7
2022-09-26T05:55:00.288Z,1.6
2022-09-26T06:00:00.275Z,1.4
2022-09-26T06:05:00.248Z,3.5
2022-09-26T06:10:00.288Z,1.0
2022-09-26T06:15:00.264Z,1.8
2022-09-26T06:20:00.300Z,3.0
2022-09-26T06:25:00.246Z,2.4
2022-09-26T06:30:00.258Z,1.4
2022-09-26T06:35:00.235Z,1.7
2022-09-26T06:40:00.274Z,1.3
2022-09-26T06:45:00.281Z,1.7
2022-09-26T06:50:00.296Z,1.9
2022-09-26T06:55:00.235Z,2.1
2022-09-26T07:00:00.339Z,3.0
2022-09-26T07:05:00.266Z,4.1
2022-09-26T07:10:00.432Z,0.8
2022-09-26T07:15:00.399Z,5.1
2022-09-26T07:20:00.333Z,5.6
2022-09-26T07:25:00.264Z,3.1
2022-09-26T07:30:00.404Z,3.3
2022-09-26T07:35:00.238Z,4.5
2022-09-26T07:40:02.100Z,5.5
2022-09-26T07:45:24.471Z,1.7
2022-09-26T07:50:00.260Z,6.0
2022-09-26T07:55:00.287Z,7.6
2022-09-26T08:00:00.543Z,4.5
2022-09-26T08:05:01.429Z,6.4
2022-09-26T08:10:00.324Z,5.4
2022-09-26T08:15:00.323Z,9.0
2022-09-26T08:20:00.283Z,7.0
2022-09-26T08:25:00.245Z,8.3
2022-09-26T08:30:00.384Z,8.6
2022-09-26T08:35:00.396Z,6.8
2022-09-26T08:40:00.352Z,3.1
2022-09-26T08:45:00.272Z,6.1
2022-09-26T08:50:00.319Z,5.8
2022-09-26T08:55:00.276Z,5.7
2022-09-26T09:00:00.314Z,6.6
2022-09-26T17:15:00.269Z,0.7
2022-09-26T17:20:00.564Z,0.9
2022-09-26T17:25:00.280Z,0.8
2022-09-26T17:30:00.356Z,1.2
2022-09-26T17:35:00.256Z,0.6
2022-09-26T17:40:00.285Z,2.2
2022-09-26T17:45:00.255Z,1.6
2022-09-26T17:50:00.277Z,0.6
2022-09-26T17:55:00.248Z,1.1
2022-09-26T18:00:00.301Z,2.6
2022-09-26T18:05:00.262Z,2.8
2022-09-26T18:10:00.293Z,1.9
2022-09-26T18:15:00.245Z,5.0
2022-09-26T18:20:00.299Z,2.2
2022-09-26T18:25:00.320Z,3.5
2022-09-26T18:30:00.285Z,2.7
2022-09-26T18:35:00.302Z,4.5
2022-09-26T18:40:04.692Z,4.2
2022-09-26T18:45:00.257Z,3.1
2022-09-26T18:50:00.321Z,3.4
2022-09-26T18:55:00.237Z,3.2
2022-09-26T19:00:00.382Z,2.6
2022-09-26T19:05:00.254Z,3.5
2022-09-26T19:10:00.281Z,3.7
2022-09-26T19:15:00.270Z,2.8
2022-09-26T19:20:00.264Z,3.3
2022-09-26T19:25:00.273Z,6.6
2022-09-26T19:30:00.283Z,2.2
2022-09-26T19:35:00.285Z,3.7
2022-09-26T19:40:00.266Z,4.9
2022-09-26T19:45:00.239Z,2.8
2022-09-26T19:50:00.395Z,3.8
2022-09-26T19:55:00.239Z,3.9
2022-09-26T20:00:00.301Z,3.0
2022-09-26T20:05:00.246Z,2.5
2022-09-26T20:10:00.402Z,1.9
2022-09-26T20:15:00.282Z,1.8
2022-09-26T20:20:00.289Z,2.6
2022-09-26T20:25:00.378Z,1.9
2022-09-26T20:30:00.302Z,2.4
2022-09-26T20:35:00.260Z,1.9
2022-09-26T20:40:00.348Z,3.0
2022-09-26T20:45:00.285Z,3.6
2022-09-26T20:50:00.315Z,2.4
2022-09-26T20:55:00.266Z,2.9
2022-09-26T21:00:00.334Z,1.4
2022-09-26T21:05:00.446Z,1.3
2022-09-26T21:10:00.334Z,2.9
2022-09-26T21:15:00.283Z,3.7
2022-09-26T21:20:00.286Z,1.2
2022-09-26T21:25:00.249Z,3.2
2022-09-26T21:30:00.313Z,5.8
2022-09-26T21:35:00.228Z,4.3
2022-09-26T21:40:00.284Z,1.8
2022-09-26T21:45:00.277Z,1.6
2022-09-26T21:50:00.269Z,3.2
2022-09-26T21:55:00.234Z,3.5
2022-09-26T22:00:00.305Z,4.9
2022-09-26T22:05:00.216Z,2.5
2022-09-26T22:10:00.264Z,2.1
2022-09-26T22:15:00.269Z,1.3
2022-09-26T22:20:00.285Z,4.7
2022-09-26T22:25:00.283Z,3.6
2022-09-26T22:30:00.323Z,3.1
2022-09-26T22:35:00.244Z,2.0
2022-09-26T22:40:00.298Z,1.8
2022-09-26T22:45:00.262Z,2.6
2022-09-26T22:50:00.279Z,3.9
2022-09-26T22:55:00.235Z,2.9
2022-09-26T23:00:00.300Z,4.7
2022-09-26T23:05:00.218Z,3.6
2022-09-26T23:10:00.389Z,4.8
2022-09-26T23:15:00.286Z,4.1
2022-09-26T23:20:00.296Z,2.7
2022-09-26T23:25:00.260Z,2.8
2022-09-26T23:30:00.280Z,4.0
2022-09-26T23:35:00.238Z,1.9
2022-09-26T23:40:00.331Z,1.1
2022-09-26T23:45:00.284Z,1.4
2022-09-26T23:50:00.310Z,4.2
2022-09-26T23:55:00.247Z,4.6
